createdAt,value
2019-06-01T00:00:12.292Z,81.57
2019-06-01T00:01:11.596Z,81.63
2019-06-01T00:02:11.751Z,81.72
2019-06-01T00:03:11.905Z,81.24
2019-06-01T00:04:12.013Z,81.63
2019-06-01T00:05:12.156Z,81.34
2019-06-01T00:06:12.305Z,81.63
2019-06-01T00:07:12.430Z,81.63
2019-06-01T00:08:12.564Z,81.82
2019-06-01T00:09:12.706Z,81.43
2019-06-01T00:10:12.857Z,81.53
2019-06-01T00:11:13.065Z,81.53
2019-06-01T00:12:13.069Z,81.63
2019-06-01T00:13:13.204Z,81.24
2019-06-01T00:14:13.344Z,82.10
2019-06-01T00:15:13.472Z,81.82
2019-06-01T00:16:13.603Z,82.20
2019-06-01T00:17:13.743Z,81.82
2019-06-01T00:18:13.890Z,82.49
2019-06-01T00:19:14.038Z,82.40
2019-06-01T00:20:14.179Z,82.30
2019-06-01T00:21:14.312Z,81.87
2019-06-01T00:22:14.505Z,82.20
2019-06-01T00:23:14.679Z,82.16
2019-06-01T00:24:14.812Z,81.97
2019-06-01T00:25:14.955Z,81.97
2019-06-01T00:26:15.097Z,81.97
2019-06-01T00:27:15.227Z,82.16
2019-06-01T00:28:15.366Z,82.64
2019-06-01T00:29:15.500Z,82.45
2019-06-01T00:30:26.593Z,81.87
2019-06-01T00:31:15.797Z,81.97
2019-06-01T00:32:15.930Z,81.72
2019-06-01T00:33:16.069Z,81.68
2019-06-01T00:34:16.246Z,81.20
2019-06-01T00:35:16.368Z,81.49
2019-06-01T00:36:16.506Z,81.30
2019-06-01T00:37:16.638Z,81.68
2019-06-01T00:38:16.788Z,81.68
2019-06-01T00:39:16.918Z,81.49
2019-06-01T00:40:17.063Z,82.45
2019-06-01T00:41:17.183Z,81.97
2019-06-01T00:42:17.330Z,81.20
2019-06-01T00:43:17.469Z,82.45
2019-06-01T00:44:17.605Z,82.07
2019-06-01T00:45:17.744Z,81.97
2019-06-01T00:46:17.858Z,82.45
2019-06-01T00:47:18.035Z,82.45
2019-06-01T00:48:18.154Z,81.78
2019-06-01T00:49:18.288Z,81.97
2019-06-01T00:50:18.450Z,81.97
2019-06-01T00:51:18.591Z,82.45
2019-06-01T00:52:18.711Z,82.54
2019-06-01T00:53:18.851Z,82.45
2019-06-01T00:54:18.980Z,82.54
2019-06-01T00:55:19.110Z,82.35
2019-06-01T00:56:19.234Z,81.97
2019-06-01T00:57:22.127Z,81.87
2019-06-01T00:58:19.519Z,81.68
2019-06-01T00:59:19.665Z,82.35
2019-06-01T01:00:19.793Z,82.54
2019-06-01T01:01:19.947Z,82.07
2019-06-01T01:02:20.151Z,82.07
2019-06-01T01:03:20.197Z,81.97
2019-06-01T01:04:20.313Z,82.54
2019-06-01T01:05:20.487Z,83.03
2019-06-01T01:06:20.620Z,82.45
2019-06-01T01:07:20.747Z,82.64
2019-06-01T01:08:20.881Z,81.87
2019-06-01T01:09:21.091Z,82.12
2019-06-01T01:10:21.237Z,82.31
2019-06-01T01:11:21.242Z,81.93
2019-06-01T01:12:21.391Z,82.45
2019-06-01T01:13:21.530Z,81.97
2019-06-01T01:14:21.663Z,81.97
2019-06-01T01:15:21.828Z,81.97
2019-06-01T01:16:21.944Z,82.51
2019-06-01T01:17:22.088Z,81.97
2019-06-01T01:18:22.320Z,82.41
2019-06-01T01:19:22.322Z,82.31
2019-06-01T01:20:22.455Z,82.03
2019-06-01T01:21:22.613Z,82.21
2019-06-01T01:22:22.737Z,82.03
2019-06-01T01:23:22.872Z,81.84
2019-06-01T01:24:23.036Z,82.31
2019-06-01T01:25:23.168Z,82.89
2019-06-01T01:26:23.305Z,82.70
2019-06-01T01:27:23.444Z,82.51
2019-06-01T01:28:24.059Z,82.79
2019-06-01T01:29:23.724Z,82.21
2019-06-01T01:30:23.859Z,82.12
2019-06-01T01:31:23.998Z,82.21
2019-06-01T01:32:24.164Z,81.84
2019-06-01T01:33:24.242Z,81.93
2019-06-01T01:34:24.379Z,82.12
2019-06-01T01:35:24.526Z,81.74
2019-06-01T01:36:24.659Z,81.84
2019-06-01T01:37:24.785Z,82.03
2019-06-01T01:38:24.915Z,82.31
2019-06-01T01:39:25.084Z,82.31
2019-06-01T01:40:25.191Z,82.03
2019-06-01T01:41:25.324Z,82.41
2019-06-01T01:42:25.458Z,82.21
2019-06-01T01:43:25.649Z,81.93
2019-06-01T01:44:25.777Z,82.03
2019-06-01T01:45:25.917Z,82.12
2019-06-01T01:46:26.048Z,81.84
2019-06-01T01:47:26.193Z,81.89
2019-06-01T01:48:26.321Z,81.45
2019-06-01T01:49:26.457Z,82.65
2019-06-01T01:50:26.583Z,81.98
2019-06-01T01:51:26.759Z,81.98
2019-06-01T01:52:26.865Z,82.08
2019-06-01T01:53:26.995Z,82.27
2019-06-01T01:54:27.133Z,82.18
2019-06-01T01:55:27.289Z,82.37
2019-06-01T01:56:27.413Z,81.98
2019-06-01T01:57:27.538Z,82.08
2019-06-01T01:58:27.670Z,82.27
2019-06-01T01:59:27.822Z,82.56
2019-06-01T02:00:27.949Z,81.98
2019-06-01T02:01:28.076Z,82.65
2019-06-01T02:02:28.207Z,82.56
2019-06-01T02:03:28.367Z,82.08
2019-06-01T02:04:28.490Z,81.98
2019-06-01T02:05:28.635Z,81.79
2019-06-01T02:06:29.318Z,82.37
2019-06-01T02:07:28.921Z,82.46
2019-06-01T02:08:29.046Z,82.56
2019-06-01T02:09:29.175Z,82.37
2019-06-01T02:10:29.312Z,82.37
2019-06-01T02:11:29.437Z,82.46
2019-06-01T02:12:29.571Z,82.46
2019-06-01T02:13:29.716Z,82.75
2019-06-01T02:14:29.867Z,82.85
2019-06-01T02:15:29.995Z,82.65
2019-06-01T02:16:30.125Z,82.37
2019-06-01T02:17:30.261Z,81.89
2019-06-01T02:18:30.416Z,81.98
2019-06-01T02:19:30.541Z,82.08
2019-06-01T02:20:30.683Z,81.89
2019-06-01T02:21:30.841Z,82.37
2019-06-01T02:22:30.971Z,82.27
2019-06-01T02:23:31.102Z,82.37
2019-06-01T02:24:31.233Z,82.85
2019-06-01T02:25:31.358Z,82.52
2019-06-01T02:26:31.494Z,82.65
2019-06-01T02:27:31.642Z,83.00
2019-06-01T02:28:31.783Z,82.90
2019-06-01T02:29:31.909Z,82.90
2019-06-01T02:30:32.073Z,82.75
2019-06-01T02:31:41.525Z,83.19
2019-06-01T02:32:32.332Z,82.90
2019-06-01T02:33:32.539Z,82.71
2019-06-01T02:34:32.546Z,82.62
2019-06-01T02:35:32.687Z,82.62
2019-06-01T02:36:32.838Z,82.32
2019-06-01T02:37:32.979Z,82.81
2019-06-01T02:38:33.107Z,83.19
2019-06-01T02:39:33.239Z,83.09
2019-06-01T02:40:33.403Z,83.00
2019-06-01T02:41:33.619Z,82.90
2019-06-01T02:42:33.626Z,83.38
2019-06-01T02:43:33.759Z,83.95
2019-06-01T02:44:33.904Z,84.34
2019-06-01T02:45:34.049Z,84.34
2019-06-01T02:46:35.700Z,83.86
2019-06-01T02:47:34.280Z,83.86
2019-06-01T02:48:34.434Z,84.05
2019-06-01T02:49:34.573Z,84.25
2019-06-01T02:50:34.688Z,83.86
2019-06-01T02:51:34.820Z,83.19
2019-06-01T02:52:34.972Z,83.67
2019-06-01T02:53:35.101Z,83.76
2019-06-01T02:54:35.233Z,83.58
2019-06-01T02:55:35.361Z,83.76
2019-06-01T02:56:35.520Z,82.81
2019-06-01T02:57:35.667Z,82.90
2019-06-01T02:58:35.808Z,83.29
2019-06-01T02:59:35.936Z,83.09
2019-06-01T03:00:36.081Z,82.71
2019-06-01T03:01:36.237Z,82.81
2019-06-01T03:02:36.347Z,83.00
2019-06-01T03:03:36.478Z,82.81
2019-06-01T03:04:36.614Z,82.62
2019-06-01T03:05:36.751Z,82.90
2019-06-01T03:06:36.877Z,82.90
2019-06-01T03:07:37.007Z,82.90
2019-06-01T03:08:37.156Z,83.00
2019-06-01T03:09:37.279Z,83.29
2019-06-01T03:10:37.416Z,82.62
2019-06-01T03:11:37.542Z,82.81
2019-06-01T03:12:37.720Z,82.90
2019-06-01T03:13:37.856Z,83.00
2019-06-01T03:14:37.978Z,82.90
2019-06-01T03:15:38.108Z,82.81
2019-06-01T03:16:40.250Z,82.90
2019-06-01T03:17:38.378Z,83.00
2019-06-01T03:18:38.511Z,83.00
2019-06-01T03:19:38.639Z,82.81
2019-06-01T03:20:38.791Z,83.00
2019-06-01T03:21:38.916Z,83.00
2019-06-01T03:22:39.047Z,82.81
2019-06-01T03:23:39.177Z,83.29
2019-06-01T03:24:39.308Z,82.62
2019-06-01T03:25:39.544Z,82.81
2019-06-01T03:26:39.554Z,82.71
2019-06-01T03:27:39.683Z,82.81
2019-06-01T03:28:39.862Z,83.19
2019-06-01T03:29:39.963Z,82.81
2019-06-01T03:30:44.863Z,82.90
2019-06-01T03:31:40.236Z,83.29
2019-06-01T03:32:40.394Z,82.90
2019-06-01T03:33:40.620Z,82.90
2019-06-01T03:34:40.634Z,83.29
2019-06-01T03:35:40.761Z,83.58
2019-06-01T03:36:40.918Z,83.29
2019-06-01T03:37:41.043Z,83.86
2019-06-01T03:38:41.181Z,83.95
2019-06-01T03:39:41.312Z,84.15
2019-06-01T03:40:41.468Z,83.86
2019-06-01T03:41:41.582Z,83.58
2019-06-01T03:42:41.724Z,84.05
2019-06-01T03:43:41.850Z,84.44
2019-06-01T03:44:41.997Z,84.05
2019-06-01T03:45:42.130Z,83.86
2019-06-01T03:46:42.259Z,83.95
2019-06-01T03:47:42.390Z,83.95
2019-06-01T03:48:42.532Z,84.53
2019-06-01T03:49:42.674Z,83.86
2019-06-01T03:50:42.807Z,84.15
2019-06-01T03:51:42.936Z,84.53
2019-06-01T03:52:43.095Z,83.86
2019-06-01T03:53:43.229Z,84.53
2019-06-01T03:54:43.356Z,84.25
2019-06-01T03:55:43.489Z,83.86
2019-06-01T03:56:43.636Z,83.86
2019-06-01T03:57:43.760Z,84.25
2019-06-01T03:58:43.887Z,83.95
2019-06-01T03:59:44.040Z,84.05
2019-06-01T04:00:44.184Z,84.34
2019-06-01T04:01:47.033Z,84.44
2019-06-01T04:02:44.447Z,84.34
2019-06-01T04:03:44.602Z,84.34
2019-06-01T04:04:44.721Z,84.63
2019-06-01T04:05:44.856Z,84.72
2019-06-01T04:06:44.987Z,85.01
2019-06-01T04:07:45.145Z,85.58
2019-06-01T04:08:45.271Z,84.91
2019-06-01T04:09:45.413Z,85.88
2019-06-01T04:10:45.541Z,85.97
2019-06-01T04:11:45.693Z,85.30
2019-06-01T04:12:45.804Z,85.68
2019-06-01T04:13:45.962Z,85.88
2019-06-01T04:14:46.095Z,86.11
2019-06-01T04:15:46.227Z,86.07
2019-06-01T04:16:46.355Z,85.88
2019-06-01T04:17:46.487Z,85.68
2019-06-01T04:18:46.619Z,86.40
2019-06-01T04:19:46.755Z,85.92
2019-06-01T04:20:46.880Z,86.01
2019-06-01T04:21:47.018Z,86.25
2019-06-01T04:22:47.195Z,86.35
2019-06-01T04:23:47.325Z,86.07
2019-06-01T04:24:47.461Z,86.16
2019-06-01T04:25:47.612Z,85.97
2019-06-01T04:26:47.838Z,85.97
2019-06-01T04:27:47.840Z,86.21
2019-06-01T04:28:48.003Z,86.35
2019-06-01T04:29:48.126Z,86.16
2019-06-01T04:30:48.268Z,86.16
2019-06-01T04:31:48.385Z,86.16
2019-06-01T04:32:50.384Z,86.16
2019-06-01T04:33:48.653Z,86.45
2019-06-01T04:34:48.770Z,86.74
2019-06-01T04:35:48.911Z,87.08
2019-06-01T04:36:49.044Z,87.12
2019-06-01T04:37:49.190Z,87.08
2019-06-01T04:38:49.325Z,87.65
2019-06-01T04:39:49.443Z,88.13
2019-06-01T04:40:49.574Z,87.94
2019-06-01T04:41:49.741Z,88.23
2019-06-01T04:42:49.894Z,88.80
2019-06-01T04:43:50.007Z,89.09
2019-06-01T04:44:50.145Z,89.66
2019-06-01T04:45:50.316Z,89.86
2019-06-01T04:46:50.408Z,90.00
2019-06-01T04:47:50.553Z,89.95
2019-06-01T04:48:50.677Z,89.95
2019-06-01T04:49:50.833Z,90.43
2019-06-01T04:50:50.963Z,90.81
2019-06-01T04:51:51.124Z,90.19
2019-06-01T04:52:51.218Z,90.53
2019-06-01T04:53:51.363Z,90.72
2019-06-01T04:54:51.474Z,90.91
2019-06-01T04:55:51.618Z,90.53
2019-06-01T04:56:51.745Z,90.62
2019-06-01T04:57:51.890Z,90.62
2019-06-01T04:58:52.011Z,90.43
2019-06-01T04:59:52.151Z,90.62
2019-06-01T05:00:52.277Z,90.53
2019-06-01T05:01:52.433Z,89.95
2019-06-01T05:03:04.883Z,90.05
2019-06-01T05:03:52.700Z,90.05
2019-06-01T05:04:52.833Z,90.53
2019-06-01T05:05:52.985Z,90.43
2019-06-01T05:06:53.111Z,90.81
2019-06-01T05:07:53.247Z,90.62
2019-06-01T05:08:53.386Z,89.90
2019-06-01T05:09:53.525Z,89.95
2019-06-01T05:10:53.654Z,90.00
2019-06-01T05:11:53.787Z,90.38
2019-06-01T05:12:53.949Z,89.90
2019-06-01T05:13:54.086Z,89.90
2019-06-01T05:14:54.209Z,89.61
2019-06-01T05:15:54.344Z,89.61
2019-06-01T05:16:54.517Z,89.51
2019-06-01T05:17:54.616Z,89.04
2019-06-01T05:18:54.739Z,89.66
2019-06-01T05:19:54.876Z,89.61
2019-06-01T05:20:55.027Z,90.19
2019-06-01T05:21:55.161Z,90.57
2019-06-01T05:22:55.304Z,90.09
2019-06-01T05:23:55.449Z,89.90
2019-06-01T05:24:55.597Z,90.28
2019-06-01T05:25:55.727Z,90.28
2019-06-01T05:26:55.870Z,90.00
2019-06-01T05:27:55.990Z,90.53
2019-06-01T05:28:56.149Z,90.72
2019-06-01T05:29:56.281Z,90.72
2019-06-01T05:30:56.412Z,91.58
2019-06-01T05:31:56.536Z,91.96
2019-06-01T05:32:56.686Z,92.54
2019-06-01T05:33:56.815Z,92.25
2019-06-01T05:34:56.953Z,92.44
2019-06-01T05:35:57.086Z,92.15
2019-06-01T05:36:57.253Z,92.06
2019-06-01T05:37:57.378Z,91.96
2019-06-01T05:38:57.507Z,92.54
2019-06-01T05:39:57.655Z,92.06
2019-06-01T05:40:57.819Z,91.96
2019-06-01T05:41:57.917Z,91.67
2019-06-01T05:42:58.050Z,92.54
2019-06-01T05:43:58.191Z,92.30
2019-06-01T05:44:58.318Z,92.68
2019-06-01T05:45:58.456Z,92.97
2019-06-01T05:46:58.593Z,92.68
2019-06-01T05:47:58.733Z,93.16
2019-06-01T05:48:58.862Z,93.16
2019-06-01T05:49:58.999Z,92.97
2019-06-01T05:50:59.148Z,93.26
2019-06-01T05:51:59.354Z,92.97
2019-06-01T05:52:59.366Z,92.58
2019-06-01T05:53:59.496Z,92.68
2019-06-01T05:54:59.648Z,93.16
2019-06-01T05:55:59.782Z,92.72
2019-06-01T05:56:59.919Z,93.01
2019-06-01T05:58:00.058Z,92.44
2019-06-01T05:59:00.208Z,92.44
2019-06-01T06:00:00.350Z,92.82
2019-06-01T06:01:00.469Z,92.24
2019-06-01T06:02:00.603Z,91.82
2019-06-01T06:03:00.745Z,92.82
2019-06-01T06:04:00.877Z,92.34
2019-06-01T06:05:01.001Z,92.63
2019-06-01T06:06:01.146Z,92.72
2019-06-01T06:07:01.291Z,93.01
2019-06-01T06:08:01.512Z,93.21
2019-06-01T06:09:01.519Z,93.01
2019-06-01T06:10:01.659Z,92.54
2019-06-01T06:11:01.803Z,92.63
2019-06-01T06:12:01.962Z,92.82
2019-06-01T06:13:02.070Z,93.30
2019-06-01T06:14:02.199Z,92.15
2019-06-01T06:15:02.350Z,92.77
2019-06-01T06:16:02.486Z,92.48
2019-06-01T06:17:02.614Z,92.72
2019-06-01T06:18:02.749Z,92.10
2019-06-01T06:19:02.881Z,92.29
2019-06-01T06:20:03.027Z,92.19
2019-06-01T06:21:03.163Z,92.29
2019-06-01T06:22:03.286Z,92.39
2019-06-01T06:23:03.438Z,92.29
2019-06-01T06:24:03.566Z,92.39
2019-06-01T06:25:03.705Z,92.29
2019-06-01T06:26:03.830Z,92.10
2019-06-01T06:27:03.974Z,92.29
2019-06-01T06:28:04.099Z,92.48
2019-06-01T06:29:04.227Z,92.00
2019-06-01T06:30:04.371Z,92.19
2019-06-01T06:31:04.505Z,91.57
2019-06-01T06:32:04.744Z,91.62
2019-06-01T06:33:04.743Z,91.66
2019-06-01T06:34:04.882Z,91.86
2019-06-01T06:35:05.019Z,92.24
2019-06-01T06:36:05.149Z,92.24
2019-06-01T06:37:05.280Z,91.19
2019-06-01T06:38:05.410Z,90.80
2019-06-01T06:39:05.593Z,90.90
2019-06-01T06:40:05.708Z,90.99
2019-06-01T06:41:05.842Z,91.66
2019-06-01T06:42:05.979Z,91.57
2019-06-01T06:43:18.702Z,91.19
2019-06-01T06:44:06.246Z,90.61
2019-06-01T06:45:06.376Z,91.38
2019-06-01T06:46:06.512Z,91.47
2019-06-01T06:47:06.668Z,92.24
2019-06-01T06:48:06.900Z,92.53
2019-06-01T06:49:09.816Z,92.33
2019-06-01T06:50:07.053Z,92.10
2019-06-01T06:51:07.199Z,91.57
2019-06-01T06:52:07.339Z,91.90
2019-06-01T06:53:07.469Z,91.47
2019-06-01T06:54:07.612Z,90.94
2019-06-01T06:55:07.762Z,91.13
2019-06-01T06:56:07.981Z,90.84
2019-06-01T06:57:08.013Z,91.71
2019-06-01T06:58:08.132Z,92.00
2019-06-01T06:59:11.593Z,91.81
2019-06-01T07:00:08.528Z,91.23
2019-06-01T07:01:11.947Z,91.13
2019-06-01T07:02:08.659Z,91.71
2019-06-01T07:03:08.799Z,91.04
2019-06-01T07:04:12.633Z,91.38
2019-06-01T07:05:09.052Z,91.33
2019-06-01T07:06:09.189Z,91.61
2019-06-01T07:07:09.343Z,91.71
2019-06-01T07:08:09.480Z,91.04
2019-06-01T07:09:09.605Z,91.42
2019-06-01T07:10:09.748Z,90.56
2019-06-01T07:11:11.874Z,90.56
2019-06-01T07:12:10.042Z,90.08
2019-06-01T07:13:10.185Z,90.46
2019-06-01T07:14:10.330Z,90.66
2019-06-01T07:15:10.476Z,90.27
2019-06-01T07:16:10.601Z,91.23
2019-06-01T07:17:10.740Z,90.27
2019-06-01T07:18:10.903Z,91.33
2019-06-01T07:19:11.008Z,91.71
2019-06-01T07:20:11.151Z,91.52
2019-06-01T07:21:11.279Z,92.29
2019-06-01T07:22:11.448Z,91.61
2019-06-01T07:23:11.587Z,91.04
2019-06-01T07:24:11.701Z,91.13
2019-06-01T07:25:11.859Z,92.48
2019-06-01T07:26:12.002Z,92.38
2019-06-01T07:27:12.128Z,92.38
2019-06-01T07:28:12.275Z,93.01
2019-06-01T07:29:12.394Z,93.19
2019-06-01T07:30:12.534Z,93.58
2019-06-01T07:31:12.662Z,94.83
2019-06-01T07:32:12.789Z,93.68
2019-06-01T07:33:12.952Z,94.16
2019-06-01T07:34:29.641Z,93.39
2019-06-01T07:35:13.211Z,93.68
2019-06-01T07:36:13.350Z,93.82
2019-06-01T07:37:13.487Z,93.63
2019-06-01T07:38:13.615Z,93.34
2019-06-01T07:39:13.741Z,93.68
2019-06-01T07:40:14.363Z,93.53
2019-06-01T07:41:14.038Z,93.05
2019-06-01T07:42:14.171Z,92.38
2019-06-01T07:43:14.299Z,92.76
2019-06-01T07:44:14.444Z,92.38
2019-06-01T07:45:14.571Z,91.18
2019-06-01T07:46:14.710Z,91.90
2019-06-01T07:47:14.835Z,91.80
2019-06-01T07:48:15.001Z,92.67
2019-06-01T07:49:15.143Z,92.47
2019-06-01T07:50:15.272Z,92.38
2019-06-01T07:51:15.413Z,92.29
2019-06-01T07:52:15.534Z,92.57
2019-06-01T07:53:15.684Z,92.57
2019-06-01T07:54:16.142Z,92.38
2019-06-01T07:55:15.946Z,92.86
2019-06-01T07:56:16.074Z,92.47
2019-06-01T07:57:16.213Z,92.47
2019-06-01T07:58:16.341Z,92.33
2019-06-01T07:59:16.480Z,93.24
2019-06-01T08:00:16.609Z,93.19
2019-06-01T08:01:16.758Z,92.81
2019-06-01T08:02:16.903Z,92.91
2019-06-01T08:03:17.024Z,92.43
2019-06-01T08:04:17.175Z,91.46
2019-06-01T08:05:17.291Z,92.43
2019-06-01T08:06:17.434Z,92.13
2019-06-01T08:07:17.577Z,91.85
2019-06-01T08:08:17.712Z,92.52
2019-06-01T08:09:17.841Z,91.56
2019-06-01T08:10:17.990Z,91.17
2019-06-01T08:11:18.110Z,90.59
2019-06-01T08:12:18.238Z,90.45
2019-06-01T08:13:18.381Z,91.41
2019-06-01T08:14:18.520Z,91.41
2019-06-01T08:15:18.648Z,92.18
2019-06-01T08:16:18.789Z,91.22
2019-06-01T08:17:18.922Z,91.22
2019-06-01T08:18:19.056Z,91.41
2019-06-01T08:19:19.198Z,88.43
2019-06-01T08:20:19.339Z,86.41
2019-06-01T08:21:19.469Z,85.83
2019-06-01T08:22:19.594Z,85.16
2019-06-01T08:23:19.730Z,84.81
2019-06-01T08:24:19.871Z,85.10
2019-06-01T08:25:19.988Z,85.68
2019-06-01T08:26:20.229Z,84.91
2019-06-01T08:27:20.280Z,85.30
2019-06-01T08:28:20.413Z,86.26
2019-06-01T08:29:20.552Z,86.93
2019-06-01T08:30:20.689Z,87.03
2019-06-01T08:31:20.828Z,86.83
2019-06-01T08:32:20.956Z,86.83
2019-06-01T08:33:21.106Z,86.16
2019-06-01T08:34:21.226Z,84.28
2019-06-01T08:35:21.365Z,84.76
2019-06-01T08:36:21.500Z,84.28
2019-06-01T08:37:21.642Z,86.11
2019-06-01T08:38:23.231Z,86.49
2019-06-01T08:39:23.361Z,86.11
2019-06-01T08:40:23.196Z,86.05
2019-06-01T08:41:23.345Z,85.38
2019-06-01T08:42:23.426Z,85.19
2019-06-01T08:43:23.534Z,85.19
2019-06-01T08:44:23.546Z,84.32
2019-06-01T08:45:23.520Z,84.52
2019-06-01T08:46:23.697Z,83.45
2019-06-01T08:47:23.618Z,82.20
2019-06-01T08:48:23.659Z,82.20
2019-06-01T08:49:23.884Z,81.91
2019-06-01T08:50:23.805Z,81.04
2019-06-01T08:51:23.979Z,81.14
2019-06-01T08:52:23.902Z,81.33
2019-06-01T08:53:23.864Z,82.10
2019-06-01T08:54:24.101Z,81.04
2019-06-01T08:55:24.104Z,80.94
2019-06-01T08:56:24.299Z,82.01
2019-06-01T08:57:24.353Z,81.14
2019-06-01T08:58:24.492Z,79.74
2019-06-01T08:59:24.627Z,81.09
2019-06-01T09:00:24.756Z,81.27
2019-06-01T09:01:24.890Z,81.95
2019-06-01T09:02:25.040Z,81.27
2019-06-01T09:03:25.818Z,80.69
2019-06-01T09:04:26.534Z,79.54
2019-06-01T09:05:26.833Z,80.79
2019-06-01T09:06:26.667Z,79.64
2019-06-01T09:07:26.874Z,79.39
2019-06-01T09:08:27.041Z,79.06
2019-06-01T09:09:26.909Z,78.52
2019-06-01T09:10:27.451Z,79.87
2019-06-01T09:11:27.046Z,78.61
2019-06-01T09:12:27.267Z,77.94
2019-06-01T09:13:27.171Z,78.13
2019-06-01T09:14:27.229Z,78.81
2019-06-01T09:15:27.555Z,79.77
2019-06-01T09:16:27.780Z,78.13
2019-06-01T09:17:27.222Z,76.68
2019-06-01T09:18:27.580Z,76.59
2019-06-01T09:19:27.437Z,76.88
2019-06-01T09:20:27.569Z,76.50
2019-06-01T09:21:27.689Z,76.78
2019-06-01T09:22:27.865Z,76.68
2019-06-01T09:23:28.001Z,77.17
2019-06-01T09:24:28.165Z,76.10
2019-06-01T09:25:28.283Z,75.85
2019-06-01T09:26:29.671Z,76.72
2019-06-01T09:27:29.686Z,75.09
2019-06-01T09:28:29.827Z,75.67
2019-06-01T09:29:30.037Z,75.14
2019-06-01T09:30:29.898Z,75.53
2019-06-01T09:31:30.334Z,76.24
2019-06-01T09:32:30.064Z,76.05
2019-06-01T09:33:30.157Z,76.24
2019-06-01T09:34:30.463Z,75.95
2019-06-01T09:35:51.247Z,73.93
2019-06-01T09:36:30.385Z,73.44
2019-06-01T09:37:30.561Z,73.25
2019-06-01T09:38:30.047Z,73.00
2019-06-01T09:39:30.971Z,72.13
2019-06-01T09:40:31.608Z,71.26
2019-06-01T09:41:30.541Z,71.36
2019-06-01T09:42:30.781Z,71.16
2019-06-01T09:43:31.233Z,70.48
2019-06-01T09:44:31.977Z,69.71
2019-06-01T09:45:32.858Z,70.78
2019-06-01T09:46:32.036Z,70.10
2019-06-01T09:47:31.303Z,70.52
2019-06-01T09:48:31.507Z,70.42
2019-06-01T09:49:33.581Z,70.14
2019-06-01T09:50:31.733Z,70.04
2019-06-01T09:51:31.886Z,70.23
2019-06-01T09:52:32.017Z,70.42
2019-06-01T09:53:32.552Z,69.74
2019-06-01T09:54:33.083Z,71.04
2019-06-01T09:55:32.785Z,71.52
2019-06-01T09:56:33.983Z,72.10
2019-06-01T09:57:34.104Z,72.10
2019-06-01T09:58:32.865Z,71.14
2019-06-01T09:59:34.005Z,70.36
2019-06-01T10:00:33.147Z,69.98
2019-06-01T10:01:34.406Z,70.07
2019-06-01T10:02:34.122Z,69.68
2019-06-01T10:03:34.461Z,69.98
2019-06-01T10:04:34.422Z,70.75
2019-06-01T10:05:34.840Z,69.40
2019-06-01T10:06:34.682Z,70.50
2019-06-01T10:07:34.856Z,70.10
2019-06-01T10:08:34.472Z,70.10
2019-06-01T10:09:35.710Z,68.72
2019-06-01T10:10:35.907Z,66.30
2019-06-01T10:11:35.971Z,67.85
2019-06-01T10:12:35.970Z,70.01
2019-06-01T10:13:36.296Z,70.20
2019-06-01T10:14:36.167Z,69.04
2019-06-01T10:15:36.388Z,68.85
2019-06-01T10:16:36.661Z,69.92
2019-06-01T10:17:36.997Z,69.43
2019-06-01T10:18:36.946Z,68.95
2019-06-01T10:19:36.737Z,69.24
2019-06-01T10:20:36.960Z,67.01
2019-06-01T10:21:36.170Z,67.79
2019-06-01T10:22:37.187Z,67.40
2019-06-01T10:23:36.622Z,68.08
2019-06-01T10:24:37.239Z,65.66
2019-06-01T10:25:36.615Z,69.33
2019-06-01T10:26:37.597Z,67.79
2019-06-01T10:27:36.911Z,69.27
2019-06-01T10:28:37.783Z,68.75
2019-06-01T10:29:37.186Z,68.01
2019-06-01T10:30:37.945Z,67.33
2019-06-01T10:31:41.008Z,68.01
2019-06-01T10:32:38.008Z,67.72
2019-06-01T10:33:38.943Z,67.63
2019-06-01T10:34:37.910Z,68.59
2019-06-01T10:35:38.949Z,66.66
2019-06-01T10:36:38.180Z,67.33
2019-06-01T10:37:39.508Z,64.72
2019-06-01T10:38:39.345Z,65.59
2019-06-01T10:39:39.416Z,64.72
2019-06-01T10:40:39.865Z,65.50
2019-06-01T10:41:39.682Z,65.20
2019-06-01T10:42:39.873Z,65.72
2019-06-01T10:43:39.760Z,66.98
2019-06-01T10:44:44.035Z,66.69
2019-06-01T10:45:39.887Z,65.50
2019-06-01T10:46:40.180Z,65.34
2019-06-01T10:47:40.103Z,65.69
2019-06-01T10:48:40.134Z,66.27
2019-06-01T10:49:40.164Z,65.40
2019-06-01T10:50:40.622Z,64.34
2019-06-01T10:51:40.482Z,66.30
2019-06-01T10:52:40.493Z,65.11
2019-06-01T10:53:41.993Z,65.63
2019-06-01T10:54:40.695Z,65.53
2019-06-01T10:55:40.830Z,64.95
2019-06-01T10:56:40.960Z,63.79
2019-06-01T10:57:41.099Z,64.37
2019-06-01T10:58:57.286Z,65.63
2019-06-01T10:59:42.517Z,66.50
2019-06-01T11:00:46.698Z,65.75
2019-06-01T11:01:42.611Z,65.14
2019-06-01T11:02:43.126Z,65.17
2019-06-01T11:03:42.877Z,64.11
2019-06-01T11:04:43.465Z,64.59
2019-06-01T11:05:42.992Z,65.47
2019-06-01T11:06:47.889Z,65.27
2019-06-01T11:07:43.092Z,65.08
2019-06-01T11:08:43.202Z,66.05
2019-06-01T11:09:43.222Z,66.82
2019-06-01T11:10:43.306Z,66.14
2019-06-01T11:11:43.262Z,66.17
2019-06-01T11:12:43.372Z,64.82
2019-06-01T11:13:43.412Z,64.92
2019-06-01T11:14:43.515Z,64.04
2019-06-01T11:15:43.655Z,65.50
2019-06-01T11:16:44.258Z,63.46
2019-06-01T11:17:43.953Z,61.91
2019-06-01T11:18:44.085Z,62.20
2019-06-01T11:19:44.218Z,62.79
2019-06-01T11:20:44.394Z,62.79
2019-06-01T11:21:44.542Z,62.20
2019-06-01T11:22:44.682Z,63.85
2019-06-01T11:23:46.550Z,62.69
2019-06-01T11:24:44.964Z,61.72
2019-06-01T11:25:45.116Z,64.17
2019-06-01T11:26:45.257Z,62.43
2019-06-01T11:27:45.400Z,63.30
2019-06-01T11:28:45.540Z,62.82
2019-06-01T11:29:51.229Z,62.52
2019-06-01T11:30:45.800Z,62.72
2019-06-01T11:31:45.939Z,62.98
2019-06-01T11:32:46.109Z,62.20
2019-06-01T11:33:46.249Z,63.37
2019-06-01T11:34:46.417Z,62.33
2019-06-01T11:35:46.517Z,62.04
2019-06-01T11:37:04.342Z,62.52
2019-06-01T11:37:46.800Z,63.30
2019-06-01T11:38:46.947Z,63.78
2019-06-01T11:39:47.093Z,62.04
2019-06-01T11:40:47.224Z,62.13
2019-06-01T11:41:47.372Z,62.16
2019-06-01T11:42:47.501Z,61.75
2019-06-01T11:43:47.632Z,62.55
2019-06-01T11:44:47.778Z,62.46
2019-06-01T11:45:47.911Z,61.19
2019-06-01T11:46:48.054Z,60.23
2019-06-01T11:47:48.192Z,60.13
2019-06-01T11:48:48.336Z,59.26
2019-06-01T11:49:48.463Z,62.65
2019-06-01T11:50:48.608Z,62.46
2019-06-01T11:51:48.749Z,62.55
2019-06-01T11:52:48.906Z,64.01
2019-06-01T11:53:49.032Z,63.26
2019-06-01T11:54:49.170Z,62.16
2019-06-01T11:55:49.310Z,63.36
2019-06-01T11:56:49.449Z,62.59
2019-06-01T11:57:49.595Z,62.01
2019-06-01T11:58:49.733Z,60.16
2019-06-01T11:59:49.871Z,58.80
2019-06-01T12:00:50.015Z,57.83
2019-06-01T12:01:50.160Z,57.93
2019-06-01T12:02:50.290Z,59.97
2019-06-01T12:03:50.424Z,59.19
2019-06-01T12:04:50.561Z,57.51
2019-06-01T12:05:50.731Z,57.83
2019-06-01T12:06:50.842Z,58.80
2019-06-01T12:07:50.976Z,60.25
2019-06-01T12:08:51.113Z,62.68
2019-06-01T12:09:51.259Z,62.68
2019-06-01T12:10:51.383Z,61.04
2019-06-01T12:11:51.601Z,60.25
2019-06-01T12:12:51.678Z,59.55
2019-06-01T12:13:51.826Z,59.48
2019-06-01T12:14:51.970Z,60.16
2019-06-01T12:15:52.101Z,60.45
2019-06-01T12:16:52.250Z,60.06
2019-06-01T12:17:52.384Z,58.90
2019-06-01T12:18:52.526Z,58.97
2019-06-01T12:19:52.666Z,58.70
2019-06-01T12:20:52.809Z,59.67
2019-06-01T12:21:52.933Z,59.00
2019-06-01T12:22:53.075Z,57.93
2019-06-01T12:23:53.211Z,58.80
2019-06-01T12:24:53.344Z,59.09
2019-06-01T12:25:53.488Z,58.73
2019-06-01T12:26:53.624Z,58.83
2019-06-01T12:27:53.774Z,61.16
2019-06-01T12:28:53.922Z,63.59
2019-06-01T12:29:54.055Z,59.80
2019-06-01T12:30:54.190Z,59.25
2019-06-01T12:31:54.353Z,59.83
2019-06-01T12:32:54.493Z,60.31
2019-06-01T12:33:54.634Z,59.44
2019-06-01T12:34:54.767Z,60.02
2019-06-01T12:35:54.911Z,59.15
2019-06-01T12:36:55.050Z,58.95
2019-06-01T12:38:05.643Z,59.95
2019-06-01T12:38:55.343Z,60.22
2019-06-01T12:39:55.465Z,58.86
2019-06-01T12:40:55.602Z,58.76
2019-06-01T12:41:55.745Z,57.40
2019-06-01T12:42:55.886Z,57.92
2019-06-01T12:43:56.025Z,60.54
2019-06-01T12:44:56.169Z,57.50
2019-06-01T12:46:06.726Z,56.56
2019-06-01T12:46:56.440Z,55.98
2019-06-01T12:47:58.569Z,56.36
2019-06-01T12:48:56.725Z,55.29
2019-06-01T12:49:56.859Z,54.58
2019-06-01T12:50:57.003Z,53.71
2019-06-01T12:51:57.140Z,54.29
2019-06-01T12:52:57.279Z,56.16
2019-06-01T12:53:57.430Z,55.00